createdAt,value
2018-12-19T00:02:27.359Z,19.80
2018-12-19T00:04:55.175Z,20.57
2018-12-19T00:07:22.750Z,21.87
2018-12-19T00:09:50.343Z,21.75
2018-12-19T00:12:18.035Z,19.57
2018-12-19T00:14:45.626Z,20.73
2018-12-19T00:17:13.199Z,19.90
2018-12-19T00:19:40.791Z,21.25
2018-12-19T00:22:08.345Z,21.80
2018-12-19T00:24:35.935Z,22.70
2018-12-19T00:27:03.503Z,21.85
2018-12-19T00:29:31.091Z,20.27
2018-12-19T00:31:58.658Z,20.75
2018-12-19T00:34:26.246Z,20.48
2018-12-19T00:36:53.803Z,21.77
2018-12-19T00:39:21.406Z,23.18
2018-12-19T00:41:48.966Z,22.90
2018-12-19T00:44:16.575Z,20.45
2018-12-19T00:46:44.138Z,22.05
2018-12-19T00:49:11.722Z,23.47
2018-12-19T00:51:39.311Z,23.07
2018-12-19T00:54:06.882Z,23.40
2018-12-19T00:56:34.473Z,22.55
2018-12-19T00:59:02.039Z,22.17
2018-12-19T01:01:29.625Z,20.65
2018-12-19T01:03:57.187Z,21.02
2018-12-19T01:06:24.887Z,22.00
2018-12-19T01:08:52.446Z,21.13
2018-12-19T01:11:20.047Z,21.97
2018-12-19T01:13:47.622Z,21.48
2018-12-19T01:16:15.210Z,21.00
2018-12-19T01:18:42.773Z,21.10
2018-12-19T01:21:10.370Z,21.40
2018-12-19T01:23:37.933Z,21.73
2018-12-19T01:26:05.521Z,21.42
2018-12-19T01:28:33.087Z,21.65
2018-12-19T01:31:00.742Z,21.65
2018-12-19T01:33:28.307Z,20.90
2018-12-19T01:35:55.907Z,21.83
2018-12-19T01:38:23.506Z,22.48
2018-12-19T01:40:51.070Z,22.15
2018-12-19T01:43:18.663Z,23.92
2018-12-19T01:45:46.235Z,24.37
2018-12-19T01:48:13.831Z,24.50
2018-12-19T01:50:41.398Z,24.25
2018-12-19T01:53:08.987Z,23.80
2018-12-19T01:55:36.562Z,24.32
2018-12-19T01:58:04.155Z,24.35
2018-12-19T02:00:31.731Z,24.02
2018-12-19T02:02:59.322Z,22.27
2018-12-19T02:05:26.899Z,23.55
2018-12-19T02:07:54.491Z,24.43
2018-12-19T02:10:22.055Z,23.70
2018-12-19T02:12:49.655Z,24.55
2018-12-19T02:15:17.223Z,22.35
2018-12-19T02:17:44.818Z,21.73
2018-12-19T02:20:12.495Z,21.60
2018-12-19T02:22:40.762Z,23.10
2018-12-19T02:25:08.443Z,22.52
2018-12-19T02:27:36.011Z,23.65
2018-12-19T02:30:04.944Z,22.10
2018-12-19T02:32:32.510Z,22.55
2018-12-19T02:35:00.104Z,23.00
2018-12-19T02:37:27.668Z,23.37
2018-12-19T02:39:55.335Z,23.70
2018-12-19T02:42:22.905Z,22.90
2018-12-19T02:44:50.504Z,22.80
2018-12-19T02:47:18.087Z,23.55
2018-12-19T02:49:45.679Z,22.62
2018-12-19T02:52:14.186Z,22.27
2018-12-19T02:54:41.775Z,22.60
2018-12-19T02:57:09.350Z,23.18
2018-12-19T02:59:36.939Z,22.75
2018-12-19T03:02:05.385Z,23.12
2018-12-19T03:04:32.978Z,23.70
2018-12-19T03:07:00.554Z,23.02
2018-12-19T03:09:28.147Z,24.87
2018-12-19T03:11:55.719Z,23.32
2018-12-19T03:14:23.328Z,24.35
2018-12-19T03:16:50.895Z,23.92
2018-12-19T03:19:18.495Z,22.82
2018-12-19T03:21:46.064Z,24.63
2018-12-19T03:24:13.778Z,24.23
2018-12-19T03:26:41.459Z,24.10
2018-12-19T03:29:09.124Z,23.95
2018-12-19T03:31:36.725Z,24.00
2018-12-19T03:34:04.395Z,24.47
2018-12-19T03:36:32.001Z,24.15
2018-12-19T03:38:59.619Z,24.12
2018-12-19T03:41:27.431Z,24.23
2018-12-19T03:43:55.006Z,22.48
2018-12-19T03:46:22.598Z,24.25
2018-12-19T03:48:56.469Z,24.32
2018-12-19T03:51:24.763Z,22.07
2018-12-19T03:53:52.329Z,22.62
2018-12-19T03:56:19.930Z,21.93
2018-12-19T03:58:47.519Z,22.13
2018-12-19T04:01:15.238Z,20.97
2018-12-19T04:03:42.809Z,20.97
2018-12-19T04:06:10.405Z,20.73
2018-12-19T04:08:38.029Z,21.15
2018-12-19T04:11:05.606Z,22.40
2018-12-19T04:13:33.195Z,19.65
2018-12-19T04:16:00.771Z,20.90
2018-12-19T04:18:28.371Z,20.43
2018-12-19T04:20:55.945Z,20.95
2018-12-19T04:23:23.547Z,19.97
2018-12-19T04:25:51.123Z,19.77
2018-12-19T04:28:18.714Z,19.95
2018-12-19T04:30:46.278Z,19.37
2018-12-19T04:33:13.879Z,18.67
2018-12-19T04:35:41.765Z,18.75
2018-12-19T04:38:09.361Z,18.60
2018-12-19T04:40:36.940Z,18.50
2018-12-19T04:43:04.530Z,18.60
2018-12-19T04:45:32.098Z,19.75
2018-12-19T04:47:59.699Z,18.52
2018-12-19T04:50:27.278Z,17.85
2018-12-19T04:52:54.890Z,17.95
2018-12-19T04:55:22.484Z,16.97
2018-12-19T04:57:50.067Z,16.85
2018-12-19T05:00:17.651Z,17.52
2018-12-19T05:02:45.210Z,16.37
2018-12-19T05:05:12.915Z,17.43
2018-12-19T05:07:40.798Z,16.85
2018-12-19T05:10:12.266Z,17.03
2018-12-19T05:12:38.111Z,16.77
2018-12-19T05:15:06.145Z,16.45
2018-12-19T05:17:33.726Z,16.82
2018-12-19T05:20:01.315Z,16.20
2018-12-19T05:22:28.870Z,17.13
2018-12-19T05:24:56.466Z,16.85
2018-12-19T05:27:24.032Z,16.52
2018-12-19T05:29:51.627Z,16.20
2018-12-19T05:32:19.186Z,16.23
2018-12-19T05:34:46.783Z,15.60
2018-12-19T05:37:14.368Z,15.60
2018-12-19T05:39:41.927Z,15.18
2018-12-19T05:42:09.562Z,14.33
2018-12-19T05:44:37.221Z,14.23
2018-12-19T05:47:04.815Z,14.93
2018-12-19T05:49:32.707Z,14.70
2018-12-19T05:52:00.303Z,14.20
2018-12-19T05:54:28.018Z,13.60
2018-12-19T05:56:55.618Z,13.78
2018-12-19T05:59:23.187Z,13.05
2018-12-19T06:01:50.776Z,12.90
2018-12-19T06:04:18.334Z,12.85
2018-12-19T06:06:45.934Z,13.20
2018-12-19T06:09:13.495Z,12.85
2018-12-19T06:11:41.078Z,12.68
2018-12-19T06:14:08.634Z,12.65
2018-12-19T06:16:36.227Z,12.75
2018-12-19T06:19:03.791Z,13.22
2018-12-19T06:21:32.264Z,13.05
2018-12-19T06:24:00.046Z,12.35
2018-12-19T06:26:27.610Z,12.75
2018-12-19T06:28:55.198Z,12.15
2018-12-19T06:31:22.754Z,12.23
2018-12-19T06:33:51.064Z,12.15
2018-12-19T06:36:18.627Z,12.37
2018-12-19T06:38:46.217Z,12.18
2018-12-19T06:41:13.781Z,11.73
2018-12-19T06:43:41.797Z,11.78
2018-12-19T06:46:09.358Z,12.03
2018-12-19T06:48:36.947Z,11.57
2018-12-19T06:51:04.520Z,11.53
2018-12-19T06:53:32.430Z,11.63
2018-12-19T06:55:59.997Z,11.38
2018-12-19T06:58:27.578Z,11.07
2018-12-19T07:00:55.239Z,11.40
2018-12-19T07:03:22.823Z,10.38
2018-12-19T07:05:50.410Z,10.50
2018-12-19T07:08:17.983Z,10.63
2018-12-19T07:10:45.579Z,10.60
2018-12-19T07:13:13.141Z,10.10
2018-12-19T07:15:40.739Z,10.85
2018-12-19T07:18:08.303Z,10.50
2018-12-19T07:20:35.902Z,10.53
2018-12-19T07:23:03.459Z,10.48
2018-12-19T07:25:31.051Z,10.80
2018-12-19T07:27:58.615Z,11.20
2018-12-19T07:30:26.217Z,11.10
2018-12-19T07:32:53.785Z,11.53
2018-12-19T07:35:21.370Z,11.83
2018-12-19T07:37:48.927Z,11.33
2018-12-19T07:40:16.516Z,11.37
2018-12-19T07:42:44.091Z,11.15
2018-12-19T07:45:11.798Z,10.88
2018-12-19T07:47:39.367Z,10.08
2018-12-19T07:50:06.926Z,10.32
2018-12-19T07:52:35.696Z,9.63
2018-12-19T07:55:03.490Z,9.88
2018-12-19T07:57:31.085Z,10.10
2018-12-19T07:59:58.654Z,11.20
2018-12-19T08:02:26.282Z,9.93
2018-12-19T08:04:53.842Z,8.83
2018-12-19T08:07:21.430Z,9.68
2018-12-19T08:09:49.035Z,9.75
2018-12-19T08:12:16.616Z,9.20
2018-12-19T08:14:44.174Z,8.88
2018-12-19T08:17:11.762Z,9.03
2018-12-19T08:19:39.332Z,9.20
2018-12-19T08:22:06.923Z,9.30
2018-12-19T08:24:34.482Z,9.40
2018-12-19T08:27:02.068Z,9.53
2018-12-19T08:29:29.636Z,9.38
2018-12-19T08:31:57.227Z,8.80
2018-12-19T08:34:24.807Z,8.43
2018-12-19T08:36:52.482Z,9.38
2018-12-19T08:39:20.400Z,9.07
2018-12-19T08:41:48.282Z,8.18
2018-12-19T08:44:15.863Z,8.20
2018-12-19T08:46:43.428Z,8.43
2018-12-19T08:49:11.019Z,8.20
2018-12-19T08:51:38.571Z,8.30
2018-12-19T08:54:06.214Z,8.10
2018-12-19T08:56:33.804Z,8.60
2018-12-19T08:59:01.387Z,8.00
2018-12-19T09:01:28.947Z,7.83
2018-12-19T09:03:56.534Z,7.55
2018-12-19T09:06:24.087Z,8.17
2018-12-19T09:08:51.674Z,8.13
2018-12-19T09:11:19.242Z,8.65
2018-12-19T09:13:46.827Z,7.58
2018-12-19T09:16:14.382Z,8.60
2018-12-19T09:18:41.968Z,7.95
2018-12-19T09:21:09.538Z,8.13
2018-12-19T09:23:37.127Z,7.58
2018-12-19T09:26:04.690Z,7.97
2018-12-19T09:28:32.279Z,7.35
2018-12-19T09:30:59.834Z,8.45
2018-12-19T09:33:27.754Z,7.58
2018-12-19T09:35:55.502Z,7.70
2018-12-19T09:38:23.093Z,7.53
2018-12-19T09:40:50.683Z,8.43
2018-12-19T09:43:18.855Z,8.50
2018-12-19T09:45:46.443Z,9.08
2018-12-19T09:48:14.006Z,8.63
2018-12-19T09:50:41.606Z,9.15
2018-12-19T09:53:09.166Z,9.00
2018-12-19T09:55:36.750Z,9.03
2018-12-19T09:58:04.422Z,9.30
2018-12-19T10:00:31.998Z,9.28
2018-12-19T10:02:59.558Z,8.68
2018-12-19T10:05:27.272Z,9.83
2018-12-19T10:07:54.835Z,9.68
2018-12-19T10:10:22.423Z,8.60
2018-12-19T10:12:49.993Z,9.30
2018-12-19T10:15:17.582Z,8.40
2018-12-19T10:17:45.155Z,8.33
2018-12-19T10:20:12.750Z,8.68
2018-12-19T10:22:41.323Z,8.80
2018-12-19T10:25:13.690Z,8.55
2018-12-19T10:27:41.547Z,8.25
2018-12-19T10:30:11.287Z,8.60
2018-12-19T10:32:39.326Z,8.43
2018-12-19T10:35:08.710Z,7.67
2018-12-19T10:37:36.522Z,8.38
2018-12-19T10:40:07.020Z,8.25
2018-12-19T10:42:34.615Z,7.90
2018-12-19T10:45:02.346Z,8.48
2018-12-19T10:47:30.003Z,7.78
2018-12-19T10:49:57.583Z,7.90
2018-12-19T10:52:25.163Z,7.80
2018-12-19T10:54:52.722Z,7.75
2018-12-19T10:57:20.343Z,7.92
2018-12-19T10:59:47.903Z,8.00
2018-12-19T11:02:15.486Z,7.20
2018-12-19T11:04:44.066Z,7.60
2018-12-19T11:07:11.654Z,7.35
2018-12-19T11:09:39.214Z,7.20
2018-12-19T11:12:06.790Z,7.40
2018-12-19T11:14:34.358Z,8.00
2018-12-19T11:17:02.181Z,7.25
2018-12-19T11:19:29.752Z,7.33
2018-12-19T11:21:57.335Z,7.97
2018-12-19T11:24:25.491Z,7.85
2018-12-19T11:26:53.969Z,7.28
2018-12-19T11:29:21.581Z,7.33
2018-12-19T11:31:49.143Z,7.28
2018-12-19T11:34:16.726Z,7.90
2018-12-19T11:36:44.398Z,7.80
2018-12-19T11:39:11.986Z,7.40
2018-12-19T11:41:39.548Z,9.00
2018-12-19T11:44:07.132Z,8.90
2018-12-19T11:46:34.695Z,8.10
2018-12-19T11:49:02.283Z,8.68
2018-12-19T11:51:29.843Z,8.03
2018-12-19T11:53:57.442Z,8.47
2018-12-19T11:56:24.995Z,9.15
2018-12-19T11:58:52.593Z,8.88
2018-12-19T12:01:20.187Z,9.40
2018-12-19T12:03:47.779Z,10.08
2018-12-19T12:06:15.339Z,9.95
2018-12-19T12:08:42.927Z,10.05
2018-12-19T12:11:10.514Z,9.60
2018-12-19T12:13:38.074Z,9.40
2018-12-19T12:16:05.662Z,9.13
2018-12-19T12:18:33.239Z,9.23
2018-12-19T12:21:00.835Z,9.83
2018-12-19T12:23:29.383Z,9.45
2018-12-19T12:25:56.969Z,8.93
2018-12-19T12:28:24.531Z,8.93
2018-12-19T12:30:52.117Z,8.60
2018-12-19T12:33:19.675Z,8.80
2018-12-19T12:35:47.578Z,9.00
2018-12-19T12:38:15.142Z,8.45
2018-12-19T12:40:42.739Z,8.40
2018-12-19T12:43:10.302Z,8.35
2018-12-19T12:45:37.885Z,8.95
2018-12-19T12:48:05.438Z,8.90
2018-12-19T12:50:33.030Z,13.22
2018-12-19T12:53:01.430Z,13.90
2018-12-19T12:55:28.999Z,13.38
2018-12-19T12:57:56.594Z,13.70
2018-12-19T13:00:24.155Z,12.90
2018-12-19T13:02:51.759Z,12.53
2018-12-19T13:05:21.364Z,12.03
2018-12-19T13:07:48.947Z,11.80
2018-12-19T13:10:16.504Z,11.25
2018-12-19T13:12:44.086Z,11.28
2018-12-19T13:15:13.658Z,10.70
2018-12-19T13:17:41.586Z,10.38
2018-12-19T13:20:09.194Z,11.15
2018-12-19T13:22:37.370Z,10.35
2018-12-19T13:25:05.258Z,10.43
2018-12-19T13:27:32.912Z,10.68
2018-12-19T13:30:00.470Z,10.60
2018-12-19T13:32:28.063Z,10.00
2018-12-19T13:34:55.651Z,10.07
2018-12-19T13:37:23.215Z,10.05
2018-12-19T13:39:50.811Z,9.90
2018-12-19T13:42:18.378Z,10.60
2018-12-19T13:44:46.019Z,10.55
2018-12-19T13:47:13.673Z,9.75
2018-12-19T13:49:41.258Z,9.80
2018-12-19T13:52:09.047Z,9.20
2018-12-19T13:54:36.642Z,9.75
2018-12-19T13:57:04.210Z,9.28
2018-12-19T13:59:31.794Z,9.80
2018-12-19T14:01:59.970Z,9.23
2018-12-19T14:04:27.686Z,9.48
2018-12-19T14:06:55.246Z,9.28
2018-12-19T14:09:22.830Z,9.65
2018-12-19T14:11:50.387Z,8.38
2018-12-19T14:14:17.975Z,8.95
2018-12-19T14:16:45.534Z,8.98
2018-12-19T14:19:13.124Z,8.83
2018-12-19T14:21:40.715Z,8.28
2018-12-19T14:24:08.282Z,8.25
2018-12-19T14:26:35.875Z,8.38
2018-12-19T14:29:03.438Z,8.23
2018-12-19T14:31:31.018Z,8.15
2018-12-19T14:33:58.708Z,8.48
2018-12-19T14:36:26.419Z,8.65
2018-12-19T14:38:54.063Z,8.40
2018-12-19T14:41:21.764Z,8.00
2018-12-19T14:43:49.333Z,8.38
2018-12-19T14:46:16.919Z,8.03
2018-12-19T14:48:44.485Z,7.75
2018-12-19T14:51:12.379Z,7.50
2018-12-19T14:53:40.059Z,7.90
2018-12-19T14:56:07.699Z,7.53
2018-12-19T14:58:35.259Z,7.70
2018-12-19T15:01:02.964Z,8.93
2018-12-19T15:03:30.546Z,8.27
2018-12-19T15:05:58.114Z,8.70
2018-12-19T15:08:25.711Z,8.85
2018-12-19T15:10:53.307Z,8.38
2018-12-19T15:13:20.891Z,8.95
2018-12-19T15:15:50.462Z,9.13
2018-12-19T15:18:18.042Z,8.35
2018-12-19T15:20:45.594Z,8.13
2018-12-19T15:23:13.174Z,8.90
2018-12-19T15:25:40.795Z,8.40
2018-12-19T15:28:08.386Z,8.65
2018-12-19T15:30:35.946Z,8.85
2018-12-19T15:33:03.848Z,9.43
2018-12-19T15:35:31.406Z,9.87
2018-12-19T15:37:58.990Z,9.60
2018-12-19T15:40:26.559Z,8.63
2018-12-19T15:42:54.159Z,8.60
2018-12-19T15:45:21.719Z,9.70
2018-12-19T15:47:49.302Z,9.75
2018-12-19T15:50:16.882Z,9.73
2018-12-19T15:52:44.442Z,10.45
2018-12-19T15:55:12.022Z,8.90
2018-12-19T15:57:39.586Z,10.03
2018-12-19T16:00:09.602Z,9.20
2018-12-19T16:02:37.158Z,9.53
2018-12-19T16:05:05.103Z,9.55
2018-12-19T16:07:32.672Z,9.70
2018-12-19T16:10:00.254Z,9.70
2018-12-19T16:12:27.864Z,10.78
2018-12-19T16:14:55.455Z,10.90
2018-12-19T16:17:23.019Z,10.72
2018-12-19T16:19:50.610Z,10.37
2018-12-19T16:22:18.894Z,10.20
2018-12-19T16:24:46.483Z,10.53
2018-12-19T16:27:14.055Z,10.45
2018-12-19T16:29:41.655Z,10.60
2018-12-19T16:32:09.219Z,11.03
2018-12-19T16:34:36.803Z,11.30
2018-12-19T16:37:04.390Z,10.70
2018-12-19T16:39:32.139Z,9.95
2018-12-19T16:41:59.750Z,10.70
2018-12-19T16:44:27.323Z,10.50
2018-12-19T16:46:54.907Z,11.25
2018-12-19T16:49:22.471Z,11.03
2018-12-19T16:51:50.143Z,11.57
2018-12-19T16:54:19.090Z,11.57
2018-12-19T16:56:46.678Z,11.55
2018-12-19T16:59:14.355Z,11.63
2018-12-19T17:01:41.947Z,11.28
2018-12-19T17:04:09.515Z,10.77
2018-12-19T17:06:37.115Z,11.68
2018-12-19T17:09:06.718Z,11.40
2018-12-19T17:11:34.298Z,11.10
2018-12-19T17:14:01.870Z,11.43
2018-12-19T17:16:29.465Z,11.12
2018-12-19T17:18:57.027Z,11.45
2018-12-19T17:21:24.615Z,12.30
2018-12-19T17:23:52.297Z,11.43
2018-12-19T17:26:19.984Z,11.75
2018-12-19T17:28:47.569Z,12.00
2018-12-19T17:31:15.154Z,11.60
2018-12-19T17:33:42.745Z,11.97
2018-12-19T17:36:10.362Z,12.10
2018-12-19T17:38:37.998Z,11.38
2018-12-19T17:41:08.554Z,11.83
2018-12-19T17:43:36.251Z,11.45
2018-12-19T17:46:03.845Z,11.20
2018-12-19T17:48:31.447Z,11.50
2018-12-19T17:50:59.135Z,11.45
2018-12-19T17:53:27.411Z,11.18
2018-12-19T17:55:54.998Z,11.65
2018-12-19T17:58:23.620Z,10.98
2018-12-19T18:00:51.179Z,10.55
2018-12-19T18:03:18.770Z,11.50
2018-12-19T18:05:46.382Z,11.53
2018-12-19T18:08:13.951Z,11.25
2018-12-19T18:10:41.633Z,11.08
2018-12-19T18:13:09.417Z,12.28
2018-12-19T18:15:37.160Z,12.18
2018-12-19T18:18:04.731Z,12.90
2018-12-19T18:20:32.328Z,12.45
2018-12-19T18:22:59.914Z,11.70
2018-12-19T18:25:27.649Z,11.00
2018-12-19T18:27:55.389Z,9.78
2018-12-19T18:30:23.128Z,9.70
2018-12-19T18:32:50.863Z,9.28
2018-12-19T18:35:18.459Z,9.57
2018-12-19T18:37:46.030Z,9.28
2018-12-19T18:40:13.640Z,9.60
2018-12-19T18:42:41.670Z,8.60
2018-12-19T18:45:11.965Z,9.00
2018-12-19T18:47:39.426Z,8.70
2018-12-19T18:50:07.774Z,9.73
2018-12-19T18:52:36.654Z,8.78
2018-12-19T18:55:05.294Z,8.68
2018-12-19T18:57:33.491Z,8.78
2018-12-19T19:00:01.110Z,8.60
2018-12-19T19:02:29.028Z,9.20
2018-12-19T19:04:56.875Z,8.85
2018-12-19T19:07:24.659Z,8.63
2018-12-19T19:09:52.218Z,8.40
2018-12-19T19:12:20.367Z,8.23
2018-12-19T19:14:48.095Z,8.65
2018-12-19T19:17:15.835Z,8.13
2018-12-19T19:19:43.459Z,8.00
2018-12-19T19:22:11.182Z,8.10
2018-12-19T19:24:39.054Z,8.65
2018-12-19T19:27:06.700Z,9.35
2018-12-19T19:29:34.474Z,8.85
2018-12-19T19:32:02.268Z,9.38
2018-12-19T19:34:29.990Z,9.60
2018-12-19T19:36:57.618Z,9.15
2018-12-19T19:39:25.333Z,8.53
2018-12-19T19:41:52.928Z,8.93
2018-12-19T19:44:20.542Z,8.90
2018-12-19T19:46:48.230Z,9.30
2018-12-19T19:49:16.098Z,11.90
2018-12-19T19:51:43.811Z,13.25
2018-12-19T19:54:11.523Z,13.65
2018-12-19T19:56:39.148Z,14.47
2018-12-19T19:59:06.854Z,14.87
2018-12-19T20:01:34.456Z,14.73
2018-12-19T20:04:02.191Z,14.78
2018-12-19T20:06:29.838Z,14.40
2018-12-19T20:08:57.626Z,13.80
2018-12-19T20:11:25.255Z,13.80
2018-12-19T20:13:52.891Z,14.43
2018-12-19T20:16:20.533Z,13.10
2018-12-19T20:18:48.127Z,13.60
2018-12-19T20:21:15.934Z,13.25
2018-12-19T20:23:43.522Z,13.95
2018-12-19T20:26:11.127Z,14.25
2018-12-19T20:28:38.888Z,13.68
2018-12-19T20:31:07.179Z,14.87
2018-12-19T20:33:35.171Z,14.30
2018-12-19T20:36:03.200Z,15.20
2018-12-19T20:38:30.867Z,14.87
2018-12-19T20:40:58.766Z,14.85
2018-12-19T20:43:26.379Z,16.07
2018-12-19T20:45:54.367Z,14.90
2018-12-19T20:48:22.314Z,14.85
2018-12-19T20:50:50.967Z,14.85
2018-12-19T20:53:18.575Z,15.05
2018-12-19T20:55:46.538Z,17.12
2018-12-19T20:58:14.388Z,17.37
2018-12-19T21:00:42.477Z,17.32
2018-12-19T21:03:10.151Z,17.23
2018-12-19T21:05:37.750Z,18.32
2018-12-19T21:08:05.318Z,19.35
2018-12-19T21:10:33.520Z,19.20
2018-12-19T21:13:01.194Z,19.07
2018-12-19T21:15:28.763Z,19.40
2018-12-19T21:20:59.742Z,18.92
2018-12-19T21:23:27.348Z,19.32
2018-12-19T21:25:54.915Z,19.23
2018-12-19T21:28:22.513Z,19.20
2018-12-19T21:30:50.074Z,18.92
2018-12-19T21:33:17.715Z,19.40
2018-12-19T21:35:45.814Z,19.37
2018-12-19T21:38:13.404Z,19.50
2018-12-19T21:40:40.986Z,19.60
2018-12-19T21:43:08.618Z,19.50
2018-12-19T21:45:36.249Z,19.17
2018-12-19T21:48:03.977Z,19.25
2018-12-19T21:50:31.658Z,19.23
2018-12-19T21:52:59.329Z,19.37
2018-12-19T21:55:26.895Z,18.98
2018-12-19T21:57:54.482Z,18.95
2018-12-19T22:00:24.090Z,17.92
2018-12-19T22:05:34.484Z,17.75
2018-12-19T22:08:02.330Z,17.67
2018-12-19T22:10:30.082Z,18.37
2018-12-19T22:12:57.806Z,17.77
2018-12-19T22:15:25.481Z,17.80
2018-12-19T22:17:55.190Z,17.52
2018-12-19T22:20:22.828Z,18.25
2018-12-19T22:22:50.555Z,17.77
2018-12-19T22:25:18.354Z,17.67
2018-12-19T22:27:46.037Z,17.52
2018-12-19T22:30:13.645Z,17.07
2018-12-19T22:32:41.215Z,17.32
2018-12-19T22:35:08.911Z,17.48
2018-12-19T22:37:36.478Z,16.30
2018-12-19T22:40:07.227Z,16.73
2018-12-19T22:42:34.815Z,16.67
2018-12-19T22:45:02.719Z,16.10
2018-12-19T22:47:30.444Z,16.48
2018-12-19T22:49:58.024Z,16.30
2018-12-19T22:52:25.610Z,15.78
2018-12-19T22:54:53.189Z,17.45
2018-12-19T22:57:20.791Z,16.40
2018-12-19T22:59:48.445Z,15.65
2018-12-19T23:02:21.871Z,15.48
2018-12-19T23:04:49.639Z,15.93
2018-12-19T23:07:17.268Z,16.62
2018-12-19T23:09:44.886Z,16.57
2018-12-19T23:12:12.583Z,16.48
2018-12-19T23:14:40.244Z,16.90
2018-12-19T23:17:13.624Z,18.25
2018-12-19T23:19:41.323Z,17.80
2018-12-19T23:22:09.035Z,16.73
2018-12-19T23:24:36.591Z,17.32
2018-12-19T23:27:04.149Z,18.82
2018-12-19T23:29:31.805Z,17.48
2018-12-19T23:31:59.435Z,17.47
2018-12-19T23:34:27.183Z,17.55
2018-12-19T23:36:54.850Z,17.40
2018-12-19T23:39:23.242Z,17.55
2018-12-19T23:41:50.810Z,17.20
2018-12-19T23:44:22.606Z,16.90
2018-12-19T23:46:50.255Z,16.27
2018-12-19T23:49:17.975Z,16.67
2018-12-19T23:51:45.535Z,16.62
2018-12-19T23:54:13.687Z,15.93
2018-12-19T23:56:41.320Z,14.25
2018-12-19T23:59:08.970Z,15.00
